X  Cerrar Datos meteorológicos de aviación METAR        ETNH Flugplatz Hohn Airport
Temperatura
15°C Temperatura
14°C Punto de rocío
94% Humedad



Viento
4 KM/H
2 MPH
1 M/S
2 NUDO



60°
ENE
Condiciones actuales

Mostly Sunny Mayormente soleado
Presión 1025 (hPa) - 30.27 (inHg)
Visibilidad 6 (milla) - 10 (km)
Aeropuerto
Código de aeropuerto ETNH

localidad: Flugplatz Hohn Airport
Distancia: 40 (km)

Metar:
METAR ETNH 110520Z 06002KT 9999 15/14 Q1025 BLU+

Hora: 11-08-2022 07:20 CEST